sensor_id;sensor_type;location;lat;lon;timestamp;P1;durP1;ratioP1;P2;durP2;ratioP2
25107;SDS011;13090;53.422;7.670;2022-09-28T00:00:09;5.72;;;2.10;;
25107;SDS011;13090;53.422;7.670;2022-09-28T00:05:12;5.32;;;2.50;;
25107;SDS011;13090;53.422;7.670;2022-09-28T00:10:16;4.88;;;2.60;;
25107;SDS011;13090;53.422;7.670;2022-09-28T00:15:19;9.07;;;2.33;;
25107;SDS011;13090;53.422;7.670;2022-09-28T00:20:23;16.35;;;2.70;;
25107;SDS011;13090;53.422;7.670;2022-09-28T00:25:27;5.93;;;2.45;;
25107;SDS011;13090;53.422;7.670;2022-09-28T00:30:29;8.18;;;2.50;;
25107;SDS011;13090;53.422;7.670;2022-09-28T00:35:32;2.30;;;2.10;;
25107;SDS011;13090;53.422;7.670;2022-09-28T00:40:36;15.35;;;2.97;;
25107;SDS011;13090;53.422;7.670;2022-09-28T00:45:38;7.25;;;2.80;;
25107;SDS011;13090;53.422;7.670;2022-09-28T00:50:41;3.20;;;2.70;;
25107;SDS011;13090;53.422;7.670;2022-09-28T00:55:47;3.22;;;2.63;;
25107;SDS011;13090;53.422;7.670;2022-09-28T01:00:54;5.38;;;3.13;;
25107;SDS011;13090;53.422;7.670;2022-09-28T01:06:00;6.22;;;3.17;;
25107;SDS011;13090;53.422;7.670;2022-09-28T01:11:07;4.22;;;3.45;;
25107;SDS011;13090;53.422;7.670;2022-09-28T01:16:11;5.07;;;3.50;;
25107;SDS011;13090;53.422;7.670;2022-09-28T01:21:20;4.40;;;3.53;;
25107;SDS011;13090;53.422;7.670;2022-09-28T01:26:31;5.25;;;3.45;;
25107;SDS011;13090;53.422;7.670;2022-09-28T01:31:43;4.50;;;3.53;;
25107;SDS011;13090;53.422;7.670;2022-09-28T01:36:49;7.18;;;3.15;;
25107;SDS011;13090;53.422;7.670;2022-09-28T01:41:57;11.13;;;3.45;;
25107;SDS011;13090;53.422;7.670;2022-09-28T01:47:06;99.78;;;4.70;;
25107;SDS011;13090;53.422;7.670;2022-09-28T01:52:12;12.70;;;3.35;;
25107;SDS011;13090;53.422;7.670;2022-09-28T01:57:23;6.50;;;3.70;;
25107;SDS011;13090;53.422;7.670;2022-09-28T02:02:30;4.43;;;3.42;;
25107;SDS011;13090;53.422;7.670;2022-09-28T02:07:37;6.65;;;3.85;;
25107;SDS011;13090;53.422;7.670;2022-09-28T02:12:45;6.05;;;4.40;;
25107;SDS011;13090;53.422;7.670;2022-09-28T02:17:50;11.07;;;4.30;;
25107;SDS011;13090;53.422;7.670;2022-09-28T02:22:54;4.00;;;3.33;;
25107;SDS011;13090;53.422;7.670;2022-09-28T02:28:00;182.48;;;6.45;;
25107;SDS011;13090;53.422;7.670;2022-09-28T02:33:07;198.48;;;8.18;;
25107;SDS011;13090;53.422;7.670;2022-09-28T02:38:13;159.32;;;4.97;;
25107;SDS011;13090;53.422;7.670;2022-09-28T02:43:18;135.50;;;7.43;;
25107;SDS011;13090;53.422;7.670;2022-09-28T02:48:28;6.90;;;3.35;;
25107;SDS011;13090;53.422;7.670;2022-09-28T02:53:53;5.07;;;2.70;;
25107;SDS011;13090;53.422;7.670;2022-09-28T02:59:11;8.63;;;2.47;;
25107;SDS011;13090;53.422;7.670;2022-09-28T03:04:24;2.70;;;2.05;;
25107;SDS011;13090;53.422;7.670;2022-09-28T03:09:36;10.93;;;2.70;;
25107;SDS011;13090;53.422;7.670;2022-09-28T03:14:49;20.95;;;3.47;;
25107;SDS011;13090;53.422;7.670;2022-09-28T03:20:08;47.28;;;4.13;;
25107;SDS011;13090;53.422;7.670;2022-09-28T03:25:12;87.32;;;5.85;;
25107;SDS011;13090;53.422;7.670;2022-09-28T03:30:16;51.53;;;4.75;;
25107;SDS011;13090;53.422;7.670;2022-09-28T03:35:19;55.85;;;4.15;;
25107;SDS011;13090;53.422;7.670;2022-09-28T03:40:21;53.95;;;3.47;;
25107;SDS011;13090;53.422;7.670;2022-09-28T03:45:26;28.13;;;3.03;;
25107;SDS011;13090;53.422;7.670;2022-09-28T03:50:29;20.50;;;2.65;;
25107;SDS011;13090;53.422;7.670;2022-09-28T03:55:31;56.70;;;4.95;;
25107;SDS011;13090;53.422;7.670;2022-09-28T04:00:36;23.73;;;3.08;;
25107;SDS011;13090;53.422;7.670;2022-09-28T04:05:39;29.27;;;2.35;;
25107;SDS011;13090;53.422;7.670;2022-09-28T04:10:49;30.38;;;2.53;;
25107;SDS011;13090;53.422;7.670;2022-09-28T04:15:55;10.18;;;2.63;;
25107;SDS011;13090;53.422;7.670;2022-09-28T04:21:01;27.35;;;2.20;;
25107;SDS011;13090;53.422;7.670;2022-09-28T04:26:05;12.15;;;1.90;;
25107;SDS011;13090;53.422;7.670;2022-09-28T04:31:11;7.88;;;2.15;;
25107;SDS011;13090;53.422;7.670;2022-09-28T04:36:17;5.70;;;1.90;;
25107;SDS011;13090;53.422;7.670;2022-09-28T04:41:20;7.63;;;1.88;;
25107;SDS011;13090;53.422;7.670;2022-09-28T04:46:24;2.50;;;2.30;;
25107;SDS011;13090;53.422;7.670;2022-09-28T04:51:29;8.88;;;3.13;;
25107;SDS011;13090;53.422;7.670;2022-09-28T04:56:31;13.98;;;2.75;;
25107;SDS011;13090;53.422;7.670;2022-09-28T05:01:36;18.00;;;3.22;;
25107;SDS011;13090;53.422;7.670;2022-09-28T05:06:39;46.38;;;20.77;;
25107;SDS011;13090;53.422;7.670;2022-09-28T05:11:41;22.42;;;5.90;;
25107;SDS011;13090;53.422;7.670;2022-09-28T05:16:46;50.20;;;6.72;;
25107;SDS011;13090;53.422;7.670;2022-09-28T05:21:49;56.78;;;3.95;;
25107;SDS011;13090;53.422;7.670;2022-09-28T05:26:52;57.00;;;3.58;;
25107;SDS011;13090;53.422;7.670;2022-09-28T05:31:56;32.55;;;2.78;;
25107;SDS011;13090;53.422;7.670;2022-09-28T05:37:00;19.73;;;3.33;;
25107;SDS011;13090;53.422;7.670;2022-09-28T05:42:03;12.63;;;2.58;;
25107;SDS011;13090;53.422;7.670;2022-09-28T05:47:08;10.55;;;2.70;;
25107;SDS011;13090;53.422;7.670;2022-09-28T05:52:10;23.58;;;3.03;;
25107;SDS011;13090;53.422;7.670;2022-09-28T05:57:13;47.47;;;19.48;;
25107;SDS011;13090;53.422;7.670;2022-09-28T06:02:17;39.22;;;5.15;;
25107;SDS011;13090;53.422;7.670;2022-09-28T06:07:20;12.38;;;3.30;;
25107;SDS011;13090;53.422;7.670;2022-09-28T06:12:23;22.60;;;4.68;;
25107;SDS011;13090;53.422;7.670;2022-09-28T06:17:27;17.15;;;4.65;;
25107;SDS011;13090;53.422;7.670;2022-09-28T06:22:30;19.98;;;4.13;;
25107;SDS011;13090;53.422;7.670;2022-09-28T06:27:32;10.02;;;5.35;;
25107;SDS011;13090;53.422;7.670;2022-09-28T06:32:36;28.20;;;3.72;;
25107;SDS011;13090;53.422;7.670;2022-09-28T06:37:39;22.05;;;3.90;;
25107;SDS011;13090;53.422;7.670;2022-09-28T06:42:44;43.83;;;4.28;;
25107;SDS011;13090;53.422;7.670;2022-09-28T06:47:58;70.97;;;5.20;;
25107;SDS011;13090;53.422;7.670;2022-09-28T06:53:02;43.53;;;5.38;;
25107;SDS011;13090;53.422;7.670;2022-09-28T06:58:08;28.30;;;5.00;;
25107;SDS011;13090;53.422;7.670;2022-09-28T07:03:14;15.95;;;4.80;;
25107;SDS011;13090;53.422;7.670;2022-09-28T07:08:19;81.00;;;6.70;;
25107;SDS011;13090;53.422;7.670;2022-09-28T07:13:24;65.65;;;4.57;;
25107;SDS011;13090;53.422;7.670;2022-09-28T07:18:49;22.58;;;5.18;;
25107;SDS011;13090;53.422;7.670;2022-09-28T07:23:52;56.17;;;5.07;;
25107;SDS011;13090;53.422;7.670;2022-09-28T07:28:55;16.45;;;4.68;;
25107;SDS011;13090;53.422;7.670;2022-09-28T07:33:59;74.25;;;19.58;;
25107;SDS011;13090;53.422;7.670;2022-09-28T07:39:02;57.38;;;8.27;;
25107;SDS011;13090;53.422;7.670;2022-09-28T07:44:04;34.58;;;5.35;;
25107;SDS011;13090;53.422;7.670;2022-09-28T07:49:09;30.08;;;6.50;;
25107;SDS011;13090;53.422;7.670;2022-09-28T07:54:12;31.83;;;6.25;;
25107;SDS011;13090;53.422;7.670;2022-09-28T07:59:15;29.27;;;5.32;;
25107;SDS011;13090;53.422;7.670;2022-09-28T08:04:20;14.68;;;4.90;;
25107;SDS011;13090;53.422;7.670;2022-09-28T08:09:23;18.58;;;3.92;;
25107;SDS011;13090;53.422;7.670;2022-09-28T08:14:25;16.15;;;4.10;;
25107;SDS011;13090;53.422;7.670;2022-09-28T08:19:30;23.33;;;4.60;;
25107;SDS011;13090;53.422;7.670;2022-09-28T08:24:33;7.32;;;3.88;;
25107;SDS011;13090;53.422;7.670;2022-09-28T08:29:36;7.05;;;3.65;;
25107;SDS011;13090;53.422;7.670;2022-09-28T08:34:40;5.85;;;4.15;;
25107;SDS011;13090;53.422;7.670;2022-09-28T08:39:42;5.20;;;4.20;;
25107;SDS011;13090;53.422;7.670;2022-09-28T08:44:45;4.93;;;3.92;;
25107;SDS011;13090;53.422;7.670;2022-09-28T08:49:52;4.38;;;3.30;;
25107;SDS011;13090;53.422;7.670;2022-09-28T08:54:57;4.82;;;3.50;;
25107;SDS011;13090;53.422;7.670;2022-09-28T09:00:04;3.50;;;2.90;;
25107;SDS011;13090;53.422;7.670;2022-09-28T09:05:14;4.20;;;3.25;;
25107;SDS011;13090;53.422;7.670;2022-09-28T09:10:23;15.90;;;10.27;;
25107;SDS011;13090;53.422;7.670;2022-09-28T09:15:40;9.07;;;7.00;;
25107;SDS011;13090;53.422;7.670;2022-09-28T09:20:52;5.28;;;4.05;;
25107;SDS011;13090;53.422;7.670;2022-09-28T09:25:58;4.00;;;3.60;;
25107;SDS011;13090;53.422;7.670;2022-09-28T09:31:07;4.10;;;3.40;;
25107;SDS011;13090;53.422;7.670;2022-09-28T09:36:28;4.22;;;3.47;;
25107;SDS011;13090;53.422;7.670;2022-09-28T09:41:45;5.35;;;3.47;;
25107;SDS011;13090;53.422;7.670;2022-09-28T09:46:58;5.22;;;3.95;;
25107;SDS011;13090;53.422;7.670;2022-09-28T09:52:09;5.43;;;3.90;;
25107;SDS011;13090;53.422;7.670;2022-09-28T09:57:18;4.57;;;3.70;;
25107;SDS011;13090;53.422;7.670;2022-09-28T10:02:25;3.30;;;3.00;;
25107;SDS011;13090;53.422;7.670;2022-09-28T10:07:32;3.47;;;3.17;;
25107;SDS011;13090;53.422;7.670;2022-09-28T10:12:43;3.25;;;2.92;;
25107;SDS011;13090;53.422;7.670;2022-09-28T10:17:46;3.33;;;2.67;;
25107;SDS011;13090;53.422;7.670;2022-09-28T10:22:50;3.08;;;2.78;;
25107;SDS011;13090;53.422;7.670;2022-09-28T10:27:56;3.47;;;2.80;;
25107;SDS011;13090;53.422;7.670;2022-09-28T10:33:02;2.83;;;2.40;;
25107;SDS011;13090;53.422;7.670;2022-09-28T10:38:06;3.00;;;2.70;;
25107;SDS011;13090;53.422;7.670;2022-09-28T10:43:16;2.03;;;1.85;;
25107;SDS011;13090;53.422;7.670;2022-09-28T10:48:22;2.45;;;2.13;;
25107;SDS011;13090;53.422;7.670;2022-09-28T10:53:26;7.28;;;5.38;;
25107;SDS011;13090;53.422;7.670;2022-09-28T10:58:32;4.88;;;4.00;;
25107;SDS011;13090;53.422;7.670;2022-09-28T11:03:46;4.45;;;3.75;;
25107;SDS011;13090;53.422;7.670;2022-09-28T11:08:52;2.50;;;2.30;;
25107;SDS011;13090;53.422;7.670;2022-09-28T11:13:59;2.83;;;2.05;;
25107;SDS011;13090;53.422;7.670;2022-09-28T11:19:03;1.73;;;1.63;;
25107;SDS011;13090;53.422;7.670;2022-09-28T11:24:28;2.40;;;2.08;;
25107;SDS011;13090;53.422;7.670;2022-09-28T11:29:33;2.60;;;1.80;;
25107;SDS011;13090;53.422;7.670;2022-09-28T11:34:41;1.98;;;1.48;;
25107;SDS011;13090;53.422;7.670;2022-09-28T11:40:04;1.20;;;1.10;;
25107;SDS011;13090;53.422;7.670;2022-09-28T11:45:21;1.55;;;0.93;;
25107;SDS011;13090;53.422;7.670;2022-09-28T11:50:39;1.15;;;1.00;;
25107;SDS011;13090;53.422;7.670;2022-09-28T11:55:49;1.02;;;0.95;;
25107;SDS011;13090;53.422;7.670;2022-09-28T12:00:58;1.42;;;1.17;;
25107;SDS011;13090;53.422;7.670;2022-09-28T12:06:07;1.02;;;0.93;;
25107;SDS011;13090;53.422;7.670;2022-09-28T12:11:18;2.35;;;0.70;;
25107;SDS011;13090;53.422;7.670;2022-09-28T12:16:27;6.60;;;4.78;;
25107;SDS011;13090;53.422;7.670;2022-09-28T12:21:56;6.47;;;4.03;;
25107;SDS011;13090;53.422;7.670;2022-09-28T12:27:06;1.83;;;1.55;;
25107;SDS011;13090;53.422;7.670;2022-09-28T12:32:17;2.50;;;1.83;;
25107;SDS011;13090;53.422;7.670;2022-09-28T12:37:34;1.25;;;0.88;;
25107;SDS011;13090;53.422;7.670;2022-09-28T12:42:56;1.95;;;1.20;;
25107;SDS011;13090;53.422;7.670;2022-09-28T12:48:15;1.17;;;0.90;;
25107;SDS011;13090;53.422;7.670;2022-09-28T12:53:53;1.00;;;0.90;;
25107;SDS011;13090;53.422;7.670;2022-09-28T12:59:16;0.80;;;0.80;;
25107;SDS011;13090;53.422;7.670;2022-09-28T13:04:38;1.05;;;0.98;;
25107;SDS011;13090;53.422;7.670;2022-09-28T13:10:03;1.00;;;1.00;;
25107;SDS011;13090;53.422;7.670;2022-09-28T13:15:28;0.57;;;0.57;;
25107;SDS011;13090;53.422;7.670;2022-09-28T13:20:43;1.50;;;0.90;;
25107;SDS011;13090;53.422;7.670;2022-09-28T13:25:58;1.02;;;0.95;;
25107;SDS011;13090;53.422;7.670;2022-09-28T13:31:10;1.27;;;0.65;;
25107;SDS011;13090;53.422;7.670;2022-09-28T13:36:34;1.25;;;0.77;;
25107;SDS011;13090;53.422;7.670;2022-09-28T13:41:38;1.13;;;0.68;;
25107;SDS011;13090;53.422;7.670;2022-09-28T13:46:53;1.80;;;0.80;;
25107;SDS011;13090;53.422;7.670;2022-09-28T13:52:29;0.95;;;0.60;;
25107;SDS011;13090;53.422;7.670;2022-09-28T13:57:41;0.75;;;0.65;;
25107;SDS011;13090;53.422;7.670;2022-09-28T14:02:53;0.55;;;0.55;;
25107;SDS011;13090;53.422;7.670;2022-09-28T14:08:09;0.52;;;0.50;;
25107;SDS011;13090;53.422;7.670;2022-09-28T14:19:06;1.88;;;1.23;;
25107;SDS011;13090;53.422;7.670;2022-09-28T14:24:16;2.72;;;1.60;;
25107;SDS011;13090;53.422;7.670;2022-09-28T14:29:37;9.85;;;7.75;;
25107;SDS011;13090;53.422;7.670;2022-09-28T14:34:42;4.63;;;2.25;;
25107;SDS011;13090;53.422;7.670;2022-09-28T14:39:48;3.63;;;2.00;;
25107;SDS011;13090;53.422;7.670;2022-09-28T14:50:37;3.70;;;2.58;;
25107;SDS011;13090;53.422;7.670;2022-09-28T14:55:41;1.50;;;1.40;;
25107;SDS011;13090;53.422;7.670;2022-09-28T15:00:48;3.58;;;1.48;;
25107;SDS011;13090;53.422;7.670;2022-09-28T15:05:57;1.10;;;1.00;;
25107;SDS011;13090;53.422;7.670;2022-09-28T15:11:00;2.75;;;1.60;;
25107;SDS011;13090;53.422;7.670;2022-09-28T15:16:03;2.90;;;2.13;;
25107;SDS011;13090;53.422;7.670;2022-09-28T15:21:10;2.75;;;1.90;;
25107;SDS011;13090;53.422;7.670;2022-09-28T15:26:21;2.17;;;1.73;;
25107;SDS011;13090;53.422;7.670;2022-09-28T15:31:26;1.50;;;1.40;;
25107;SDS011;13090;53.422;7.670;2022-09-28T15:36:33;1.20;;;1.10;;
25107;SDS011;13090;53.422;7.670;2022-09-28T15:41:40;1.77;;;0.82;;
25107;SDS011;13090;53.422;7.670;2022-09-28T15:46:44;1.73;;;0.80;;
25107;SDS011;13090;53.422;7.670;2022-09-28T15:51:50;1.08;;;0.85;;
25107;SDS011;13090;53.422;7.670;2022-09-28T15:56:55;0.80;;;0.80;;
25107;SDS011;13090;53.422;7.670;2022-09-28T16:07:27;26.38;;;16.60;;
25107;SDS011;13090;53.422;7.670;2022-09-28T16:12:41;29.60;;;18.38;;
25107;SDS011;13090;53.422;7.670;2022-09-28T16:17:49;3.83;;;2.80;;
25107;SDS011;13090;53.422;7.670;2022-09-28T16:22:56;4.43;;;3.40;;
25107;SDS011;13090;53.422;7.670;2022-09-28T16:28:00;4.00;;;2.40;;
25107;SDS011;13090;53.422;7.670;2022-09-28T16:33:03;4.78;;;3.80;;
25107;SDS011;13090;53.422;7.670;2022-09-28T16:38:10;4.95;;;3.20;;
25107;SDS011;13090;53.422;7.670;2022-09-28T16:43:17;4.68;;;2.95;;
25107;SDS011;13090;53.422;7.670;2022-09-28T16:53:27;2.03;;;1.70;;
25107;SDS011;13090;53.422;7.670;2022-09-28T16:58:30;1.90;;;1.70;;
25107;SDS011;13090;53.422;7.670;2022-09-28T17:03:33;2.88;;;1.25;;
25107;SDS011;13090;53.422;7.670;2022-09-28T17:08:37;2.03;;;1.33;;
25107;SDS011;13090;53.422;7.670;2022-09-28T17:13:40;3.55;;;1.60;;
25107;SDS011;13090;53.422;7.670;2022-09-28T17:18:43;2.20;;;1.70;;
25107;SDS011;13090;53.422;7.670;2022-09-28T17:23:47;3.90;;;2.00;;
25107;SDS011;13090;53.422;7.670;2022-09-28T17:28:50;4.28;;;3.35;;
25107;SDS011;13090;53.422;7.670;2022-09-28T17:33:53;7.75;;;6.45;;
25107;SDS011;13090;53.422;7.670;2022-09-28T17:38:58;6.50;;;5.05;;
25107;SDS011;13090;53.422;7.670;2022-09-28T17:44:01;12.32;;;9.27;;
25107;SDS011;13090;53.422;7.670;2022-09-28T17:49:04;10.48;;;7.32;;
25107;SDS011;13090;53.422;7.670;2022-09-28T17:54:10;4.07;;;3.67;;
25107;SDS011;13090;53.422;7.670;2022-09-28T17:59:13;4.32;;;3.60;;
25107;SDS011;13090;53.422;7.670;2022-09-28T18:04:18;7.10;;;4.28;;
25107;SDS011;13090;53.422;7.670;2022-09-28T18:09:41;8.93;;;6.63;;
25107;SDS011;13090;53.422;7.670;2022-09-28T18:14:44;5.18;;;4.47;;
25107;SDS011;13090;53.422;7.670;2022-09-28T18:19:46;66.95;;;33.05;;
25107;SDS011;13090;53.422;7.670;2022-09-28T18:24:50;16.40;;;11.85;;
25107;SDS011;13090;53.422;7.670;2022-09-28T18:29:53;7.25;;;5.55;;
25107;SDS011;13090;53.422;7.670;2022-09-28T18:34:56;8.00;;;5.57;;
25107;SDS011;13090;53.422;7.670;2022-09-28T18:40:01;9.32;;;7.03;;
25107;SDS011;13090;53.422;7.670;2022-09-28T18:45:06;4.85;;;3.83;;
25107;SDS011;13090;53.422;7.670;2022-09-28T18:50:10;6.22;;;4.93;;
25107;SDS011;13090;53.422;7.670;2022-09-28T18:55:14;6.43;;;4.53;;
25107;SDS011;13090;53.422;7.670;2022-09-28T19:00:17;7.40;;;6.32;;
25107;SDS011;13090;53.422;7.670;2022-09-28T19:05:20;10.18;;;7.85;;
25107;SDS011;13090;53.422;7.670;2022-09-28T19:10:24;11.30;;;8.27;;
25107;SDS011;13090;53.422;7.670;2022-09-28T19:15:27;51.10;;;6.63;;
25107;SDS011;13090;53.422;7.670;2022-09-28T19:20:31;16.13;;;6.20;;
25107;SDS011;13090;53.422;7.670;2022-09-28T19:25:35;12.02;;;6.45;;
25107;SDS011;13090;53.422;7.670;2022-09-28T19:30:38;7.00;;;5.78;;
25107;SDS011;13090;53.422;7.670;2022-09-28T19:35:41;9.60;;;5.78;;
25107;SDS011;13090;53.422;7.670;2022-09-28T19:40:45;49.85;;;6.28;;
25107;SDS011;13090;53.422;7.670;2022-09-28T19:45:48;109.78;;;7.60;;
25107;SDS011;13090;53.422;7.670;2022-09-28T19:50:54;47.30;;;5.57;;
25107;SDS011;13090;53.422;7.670;2022-09-28T19:55:59;57.47;;;5.82;;
25107;SDS011;13090;53.422;7.670;2022-09-28T20:01:03;16.27;;;4.85;;
25107;SDS011;13090;53.422;7.670;2022-09-28T20:06:07;15.82;;;4.93;;
25107;SDS011;13090;53.422;7.670;2022-09-28T20:11:17;5.13;;;4.05;;
25107;SDS011;13090;53.422;7.670;2022-09-28T20:16:20;43.42;;;5.20;;
25107;SDS011;13090;53.422;7.670;2022-09-28T20:21:22;38.88;;;5.57;;
25107;SDS011;13090;53.422;7.670;2022-09-28T20:26:29;9.38;;;5.03;;
25107;SDS011;13090;53.422;7.670;2022-09-28T20:31:32;22.70;;;7.53;;
25107;SDS011;13090;53.422;7.670;2022-09-28T20:36:35;12.45;;;7.15;;
25107;SDS011;13090;53.422;7.670;2022-09-28T20:41:40;11.52;;;6.25;;
25107;SDS011;13090;53.422;7.670;2022-09-28T20:46:42;11.52;;;5.13;;
25107;SDS011;13090;53.422;7.670;2022-09-28T20:51:45;6.50;;;4.72;;
25107;SDS011;13090;53.422;7.670;2022-09-28T20:56:49;72.25;;;8.48;;
25107;SDS011;13090;53.422;7.670;2022-09-28T21:01:51;15.90;;;6.20;;
25107;SDS011;13090;53.422;7.670;2022-09-28T21:06:54;9.02;;;6.40;;
25107;SDS011;13090;53.422;7.670;2022-09-28T21:11:59;12.07;;;7.45;;
25107;SDS011;13090;53.422;7.670;2022-09-28T21:17:02;7.15;;;5.25;;
25107;SDS011;13090;53.422;7.670;2022-09-28T21:22:04;7.40;;;5.60;;
25107;SDS011;13090;53.422;7.670;2022-09-28T21:27:08;6.95;;;6.10;;
25107;SDS011;13090;53.422;7.670;2022-09-28T21:32:11;12.38;;;5.63;;
25107;SDS011;13090;53.422;7.670;2022-09-28T21:37:13;37.17;;;11.07;;
25107;SDS011;13090;53.422;7.670;2022-09-28T21:42:18;25.30;;;9.85;;
25107;SDS011;13090;53.422;7.670;2022-09-28T21:47:21;11.02;;;6.85;;
25107;SDS011;13090;53.422;7.670;2022-09-28T21:52:23;10.70;;;7.40;;
25107;SDS011;13090;53.422;7.670;2022-09-28T21:57:27;9.55;;;7.00;;
25107;SDS011;13090;53.422;7.670;2022-09-28T22:02:30;8.35;;;5.38;;
25107;SDS011;13090;53.422;7.670;2022-09-28T22:07:33;7.68;;;4.88;;
25107;SDS011;13090;53.422;7.670;2022-09-28T22:12:37;6.30;;;5.43;;
25107;SDS011;13090;53.422;7.670;2022-09-28T22:17:40;5.47;;;4.88;;
25107;SDS011;13090;53.422;7.670;2022-09-28T22:22:47;7.10;;;5.22;;
25107;SDS011;13090;53.422;7.670;2022-09-28T22:27:51;47.85;;;6.63;;
25107;SDS011;13090;53.422;7.670;2022-09-28T22:32:54;17.73;;;5.55;;
25107;SDS011;13090;53.422;7.670;2022-09-28T22:37:58;6.07;;;4.80;;
25107;SDS011;13090;53.422;7.670;2022-09-28T22:43:02;4.95;;;4.35;;
25107;SDS011;13090;53.422;7.670;2022-09-28T22:48:04;7.13;;;5.45;;
25107;SDS011;13090;53.422;7.670;2022-09-28T22:53:07;12.20;;;4.68;;
25107;SDS011;13090;53.422;7.670;2022-09-28T22:58:11;29.52;;;4.97;;
25107;SDS011;13090;53.422;7.670;2022-09-28T23:03:14;4.55;;;3.58;;
25107;SDS011;13090;53.422;7.670;2022-09-28T23:08:17;6.40;;;4.30;;
25107;SDS011;13090;53.422;7.670;2022-09-28T23:13:21;5.40;;;4.35;;
25107;SDS011;13090;53.422;7.670;2022-09-28T23:18:23;7.85;;;5.35;;
25107;SDS011;13090;53.422;7.670;2022-09-28T23:23:27;6.20;;;4.80;;
25107;SDS011;13090;53.422;7.670;2022-09-28T23:28:32;5.32;;;4.65;;
25107;SDS011;13090;53.422;7.670;2022-09-28T23:33:35;4.75;;;4.07;;
25107;SDS011;13090;53.422;7.670;2022-09-28T23:38:37;3.70;;;3.40;;
25107;SDS011;13090;53.422;7.670;2022-09-28T23:43:42;4.68;;;3.40;;
25107;SDS011;13090;53.422;7.670;2022-09-28T23:48:45;5.07;;;3.80;;
25107;SDS011;13090;53.422;7.670;2022-09-28T23:53:47;5.55;;;3.35;;
25107;SDS011;13090;53.422;7.670;2022-09-28T23:58:51;5.43;;;3.13;;
